Time;durP1;ratioP1;P1;durP2;ratioP2;P2;SDS_P1;SDS_P2;PMS_P1;PMS_P2;Temp;Humidity;BMP_temperature;BMP_pressure;BME280_temperature;BME280_humidity;BME280_pressure;Samples;Min_cycle;Max_cycle;Signal;HPM_P1;HPM_P2
2020/11/28 00:02:40;;;;;;;7.10;6.40;;;;;;;18.96;50.58;100779.06;;;;-57
2020/11/28 00:05:40;;;;;;;6.77;6.07;;;;;;;18.95;50.67;100782.23;;;;-50
2020/11/28 00:08:40;;;;;;;6.50;5.81;;;;;;;18.93;50.48;100785.53;;;;-50
2020/11/28 00:11:40;;;;;;;7.91;6.19;;;;;;;18.92;50.63;100782.01;;;;-50
2020/11/28 00:14:40;;;;;;;6.43;5.78;;;;;;;18.89;50.47;100783.20;;;;-50
2020/11/28 00:17:40;;;;;;;6.49;5.89;;;;;;;18.89;50.58;100786.94;;;;-50
2020/11/28 00:20:40;;;;;;;6.56;5.96;;;;;;;18.88;50.51;100784.30;;;;-51
2020/11/28 00:23:40;;;;;;;6.68;6.00;;;;;;;18.85;50.53;100780.63;;;;-50
2020/11/28 00:26:40;;;;;;;6.53;5.93;;;;;;;18.83;50.63;100778.80;;;;-50
2020/11/28 00:29:40;;;;;;;6.40;5.79;;;;;;;18.83;50.56;100781.08;;;;-50
2020/11/28 00:32:40;;;;;;;6.37;5.77;;;;;;;18.81;50.58;100780.80;;;;-50
2020/11/28 00:35:40;;;;;;;5.97;5.40;;;;;;;18.80;50.59;100778.18;;;;-50
2020/11/28 00:38:40;;;;;;;6.23;5.63;;;;;;;18.78;50.68;100779.16;;;;-50
2020/11/28 00:41:40;;;;;;;6.21;5.61;;;;;;;18.77;50.60;100778.36;;;;-50
2020/11/28 00:44:40;;;;;;;5.98;5.44;;;;;;;18.75;50.60;100777.92;;;;-50
2020/11/28 00:47:40;;;;;;;6.35;5.75;;;;;;;18.73;50.58;100778.06;;;;-50
2020/11/28 00:50:40;;;;;;;6.15;5.55;;;;;;;18.72;50.71;100777.25;;;;-50
2020/11/28 00:53:40;;;;;;;5.99;5.43;;;;;;;18.70;50.59;100778.84;;;;-57
2020/11/28 00:56:40;;;;;;;6.05;5.39;;;;;;;18.69;50.75;100780.19;;;;-56
2020/11/28 00:59:40;;;;;;;5.79;5.19;;;;;;;18.68;50.70;100775.73;;;;-56
2020/11/28 01:02:40;;;;;;;6.34;5.74;;;;;;;18.67;50.54;100777.64;;;;-56
2020/11/28 01:05:40;;;;;;;5.83;5.32;;;;;;;18.66;50.65;100780.24;;;;-50
2020/11/28 01:08:40;;;;;;;5.99;5.39;;;;;;;18.65;50.59;100780.05;;;;-50
2020/11/28 01:11:40;;;;;;;5.99;5.39;;;;;;;18.64;50.57;100774.61;;;;-50
2020/11/28 01:14:40;;;;;;;5.74;5.21;;;;;;;18.63;50.49;100775.55;;;;-51
2020/11/28 01:17:40;;;;;;;6.01;5.41;;;;;;;18.62;50.44;100773.04;;;;-50
2020/11/28 01:20:40;;;;;;;5.67;5.17;;;;;;;18.60;50.58;100772.60;;;;-51
2020/11/28 01:23:40;;;;;;;5.97;5.37;;;;;;;18.59;50.52;100771.79;;;;-50
2020/11/28 01:26:40;;;;;;;5.51;5.01;;;;;;;18.58;50.52;100771.59;;;;-50
2020/11/28 01:29:40;;;;;;;5.86;5.27;;;;;;;18.57;50.55;100768.67;;;;-50
2020/11/28 01:32:40;;;;;;;5.99;5.39;;;;;;;18.57;50.62;100767.86;;;;-50
2020/11/28 01:35:40;;;;;;;5.76;5.20;;;;;;;18.55;50.47;100766.86;;;;-56
2020/11/28 01:38:40;;;;;;;5.49;4.99;;;;;;;18.55;50.42;100765.37;;;;-56
2020/11/28 01:41:40;;;;;;;5.49;4.99;;;;;;;18.54;50.55;100763.74;;;;-56
2020/11/28 01:44:40;;;;;;;5.59;5.09;;;;;;;18.52;50.68;100766.06;;;;-56
2020/11/28 01:47:40;;;;;;;5.41;4.91;;;;;;;18.52;50.41;100768.26;;;;-56
2020/11/28 01:50:40;;;;;;;5.53;5.00;;;;;;;18.50;50.49;100766.52;;;;-56
2020/11/28 01:53:40;;;;;;;5.64;5.09;;;;;;;18.50;50.50;100767.25;;;;-56
2020/11/28 01:56:40;;;;;;;5.25;4.75;;;;;;;18.49;50.57;100765.63;;;;-56
2020/11/28 01:59:40;;;;;;;5.53;5.01;;;;;;;18.47;50.45;100763.08;;;;-56
2020/11/28 02:02:40;;;;;;;5.18;4.68;;;;;;;18.46;50.53;100764.34;;;;-56
2020/11/28 02:05:40;;;;;;;5.39;4.89;;;;;;;18.46;50.53;100768.56;;;;-50
2020/11/28 02:08:40;;;;;;;5.38;4.87;;;;;;;18.44;50.62;100768.70;;;;-50
2020/11/28 02:11:40;;;;;;;5.01;4.60;;;;;;;18.43;50.56;100763.42;;;;-50
2020/11/28 02:14:40;;;;;;;4.99;4.57;;;;;;;18.43;50.57;100760.34;;;;-50
2020/11/28 02:17:40;;;;;;;5.07;4.64;;;;;;;18.41;50.53;100763.23;;;;-56
2020/11/28 02:20:40;;;;;;;5.39;4.89;;;;;;;18.41;50.58;100759.55;;;;-56
2020/11/28 02:23:40;;;;;;;5.29;4.79;;;;;;;18.39;50.60;100754.44;;;;-56
2020/11/28 02:26:40;;;;;;;4.99;4.54;;;;;;;18.39;50.62;100749.89;;;;-56
2020/11/28 02:29:40;;;;;;;5.05;4.63;;;;;;;18.38;50.53;100747.50;;;;-57
2020/11/28 02:32:40;;;;;;;4.69;4.29;;;;;;;18.37;50.45;100750.02;;;;-56
2020/11/28 02:35:40;;;;;;;5.23;4.73;;;;;;;18.36;50.60;100749.94;;;;-57
2020/11/28 02:38:40;;;;;;;5.07;4.59;;;;;;;18.35;50.74;100749.66;;;;-50
2020/11/28 02:41:40;;;;;;;5.13;4.63;;;;;;;18.34;50.55;100748.98;;;;-56
2020/11/28 02:44:40;;;;;;;4.87;4.47;;;;;;;18.33;50.55;100746.70;;;;-57
2020/11/28 02:47:40;;;;;;;4.76;4.36;;;;;;;18.32;50.63;100750.33;;;;-56
2020/11/28 02:50:40;;;;;;;4.72;4.32;;;;;;;18.31;50.57;100750.89;;;;-56
2020/11/28 02:53:40;;;;;;;4.88;4.48;;;;;;;18.30;50.71;100749.41;;;;-56
2020/11/28 02:56:40;;;;;;;4.69;4.27;;;;;;;18.29;50.68;100753.22;;;;-55
2020/11/28 02:59:40;;;;;;;5.07;4.59;;;;;;;18.28;50.45;100754.67;;;;-56
2020/11/28 03:02:40;;;;;;;4.71;4.30;;;;;;;18.27;50.56;100754.23;;;;-56
2020/11/28 03:05:40;;;;;;;4.65;4.25;;;;;;;18.27;50.52;100749.69;;;;-56
2020/11/28 03:08:40;;;;;;;4.52;4.12;;;;;;;18.26;50.60;100749.98;;;;-56
2020/11/28 03:11:40;;;;;;;4.67;4.24;;;;;;;18.26;50.53;100749.26;;;;-56
2020/11/28 03:14:40;;;;;;;4.72;4.32;;;;;;;18.24;50.54;100746.09;;;;-56
2020/11/28 03:17:40;;;;;;;4.53;4.13;;;;;;;18.23;50.70;100745.57;;;;-56
2020/11/28 03:20:41;;;;;;;4.61;4.21;;;;;;;18.22;50.53;100746.79;;;;-56
2020/11/28 03:23:40;;;;;;;4.57;4.17;;;;;;;18.23;50.62;100750.69;;;;-55
2020/11/28 03:26:40;;;;;;;4.89;4.41;;;;;;;18.21;50.70;100750.73;;;;-57
2020/11/28 03:29:40;;;;;;;4.57;4.17;;;;;;;18.21;50.60;100750.08;;;;-57
2020/11/28 03:32:40;;;;;;;4.72;4.32;;;;;;;18.21;50.58;100751.63;;;;-57
2020/11/28 03:35:40;;;;;;;4.57;4.17;;;;;;;18.18;50.59;100749.64;;;;-57
2020/11/28 03:38:40;;;;;;;4.61;4.21;;;;;;;18.18;50.61;100743.04;;;;-56
2020/11/28 03:41:40;;;;;;;4.76;4.36;;;;;;;18.17;50.64;100745.95;;;;-50
2020/11/28 03:44:40;;;;;;;4.71;4.31;;;;;;;18.16;50.72;100743.77;;;;-50
2020/11/28 03:47:40;;;;;;;4.63;4.23;;;;;;;18.16;50.71;100744.58;;;;-50
2020/11/28 03:50:40;;;;;;;4.35;3.95;;;;;;;18.15;50.69;100744.70;;;;-56
2020/11/28 03:53:40;;;;;;;4.61;4.21;;;;;;;18.14;50.68;100742.44;;;;-57
2020/11/28 03:56:40;;;;;;;4.37;3.97;;;;;;;18.15;50.73;100742.68;;;;-56
2020/11/28 03:59:40;;;;;;;4.49;4.09;;;;;;;18.14;50.72;100737.24;;;;-56
2020/11/28 04:02:40;;;;;;;4.61;4.21;;;;;;;18.12;50.68;100741.27;;;;-56
2020/11/28 04:05:40;;;;;;;4.63;4.23;;;;;;;18.12;50.71;100742.41;;;;-57
2020/11/28 04:08:40;;;;;;;4.70;4.30;;;;;;;18.12;50.68;100740.95;;;;-50
2020/11/28 04:11:40;;;;;;;4.56;4.16;;;;;;;18.12;50.67;100737.78;;;;-50
2020/11/28 04:14:40;;;;;;;4.67;4.27;;;;;;;18.12;50.67;100743.62;;;;-49
2020/11/28 04:17:40;;;;;;;4.62;4.21;;;;;;;18.10;50.70;100745.69;;;;-50
2020/11/28 04:20:40;;;;;;;4.72;4.32;;;;;;;18.09;50.54;100745.58;;;;-57
2020/11/28 04:23:40;;;;;;;4.61;4.21;;;;;;;18.08;50.71;100746.15;;;;-57
2020/11/28 04:26:40;;;;;;;4.65;4.23;;;;;;;18.08;50.70;100749.23;;;;-57
2020/11/28 04:29:40;;;;;;;4.76;4.35;;;;;;;18.08;50.67;100745.82;;;;-50
2020/11/28 04:32:40;;;;;;;4.60;4.20;;;;;;;18.07;50.70;100745.14;;;;-50
2020/11/28 04:35:40;;;;;;;4.52;4.12;;;;;;;18.06;50.70;100744.33;;;;-50
2020/11/28 04:38:40;;;;;;;4.73;4.31;;;;;;;18.05;50.62;100738.21;;;;-50
2020/11/28 04:41:40;;;;;;;4.55;4.15;;;;;;;18.05;50.71;100736.02;;;;-50
2020/11/28 04:44:40;;;;;;;4.61;4.20;;;;;;;18.04;50.73;100736.43;;;;-50
2020/11/28 04:47:40;;;;;;;4.76;4.36;;;;;;;18.04;50.72;100735.21;;;;-50
2020/11/28 04:50:40;;;;;;;4.68;4.28;;;;;;;18.03;50.67;100738.13;;;;-50
2020/11/28 04:53:40;;;;;;;4.79;4.36;;;;;;;18.03;50.67;100740.45;;;;-56
2020/11/28 04:56:40;;;;;;;4.93;4.47;;;;;;;18.02;50.71;100737.61;;;;-55
2020/11/28 04:59:40;;;;;;;4.61;4.15;;;;;;;18.02;50.72;100737.61;;;;-56
2020/11/28 05:02:40;;;;;;;5.21;4.71;;;;;;;18.01;50.64;100739.84;;;;-57
2020/11/28 05:05:40;;;;;;;4.86;4.46;;;;;;;18.00;50.65;100737.66;;;;-56
2020/11/28 05:08:40;;;;;;;4.83;4.39;;;;;;;18.01;50.71;100739.72;;;;-56
2020/11/28 05:11:40;;;;;;;5.03;4.53;;;;;;;18.00;50.66;100745.28;;;;-56
2020/11/28 05:14:40;;;;;;;4.90;4.48;;;;;;;18.00;50.62;100744.63;;;;-56
2020/11/28 05:17:40;;;;;;;4.98;4.48;;;;;;;17.98;50.63;100744.11;;;;-50
2020/11/28 05:20:40;;;;;;;5.16;4.66;;;;;;;17.97;50.65;100743.59;;;;-51
2020/11/28 05:23:40;;;;;;;5.00;4.50;;;;;;;17.97;50.64;100749.51;;;;-50
2020/11/28 05:26:40;;;;;;;5.06;4.56;;;;;;;17.97;50.64;100755.34;;;;-56
2020/11/28 05:29:40;;;;;;;4.89;4.42;;;;;;;17.95;50.65;100749.09;;;;-56
2020/11/28 05:32:40;;;;;;;4.87;4.43;;;;;;;17.96;50.65;100750.96;;;;-56
2020/11/28 05:35:40;;;;;;;5.04;4.56;;;;;;;17.95;50.64;100759.16;;;;-50
2020/11/28 05:38:40;;;;;;;5.04;4.53;;;;;;;17.95;50.62;100764.71;;;;-50
2020/11/28 05:41:40;;;;;;;5.57;4.87;;;;;;;17.95;50.61;100769.58;;;;-50
2020/11/28 05:44:40;;;;;;;5.07;4.57;;;;;;;17.94;50.63;100772.58;;;;-50
2020/11/28 05:47:40;;;;;;;4.79;4.36;;;;;;;17.94;50.69;100776.47;;;;-56
2020/11/28 05:50:40;;;;;;;5.25;4.75;;;;;;;17.93;50.62;100784.50;;;;-50
2020/11/28 05:53:40;;;;;;;5.54;4.28;;;;;;;17.92;50.67;100786.56;;;;-49
2020/11/28 05:56:40;;;;;;;4.93;4.43;;;;;;;17.91;50.68;100787.70;;;;-56
2020/11/28 05:59:40;;;;;;;4.95;4.52;;;;;;;17.92;50.68;100783.16;;;;-55
2020/11/28 06:02:40;;;;;;;5.05;4.55;;;;;;;17.91;50.65;100781.18;;;;-56
2020/11/28 06:05:40;;;;;;;5.11;4.61;;;;;;;17.91;50.70;100785.89;;;;-57
2020/11/28 06:08:40;;;;;;;5.13;4.63;;;;;;;17.90;50.66;100784.34;;;;-57
2020/11/28 06:11:40;;;;;;;5.02;4.53;;;;;;;17.90;50.65;100776.72;;;;-57
2020/11/28 06:14:40;;;;;;;5.29;4.79;;;;;;;17.89;50.46;100781.09;;;;-57
2020/11/28 06:17:40;;;;;;;5.10;4.60;;;;;;;17.88;50.51;100784.39;;;;-57
2020/11/28 06:20:40;;;;;;;5.11;4.61;;;;;;;17.90;50.51;100792.53;;;;-56
2020/11/28 06:23:40;;;;;;;5.18;4.68;;;;;;;17.91;50.48;100796.78;;;;-57
2020/11/28 06:26:40;;;;;;;5.17;4.57;;;;;;;17.93;50.50;100799.17;;;;-56
2020/11/28 06:29:40;;;;;;;5.04;4.54;;;;;;;17.97;50.50;100803.67;;;;-50
2020/11/28 06:32:40;;;;;;;4.61;4.21;;;;;;;17.99;50.60;100806.80;;;;-50
2020/11/28 06:35:40;;;;;;;4.99;4.52;;;;;;;18.02;50.89;100811.00;;;;-50
2020/11/28 06:38:40;;;;;;;4.81;4.41;;;;;;;18.05;51.01;100814.93;;;;-50
2020/11/28 06:41:40;;;;;;;4.74;4.26;;;;;;;18.07;50.96;100815.62;;;;-57
2020/11/28 06:44:40;;;;;;;4.47;4.07;;;;;;;18.11;51.04;100821.37;;;;-57
2020/11/28 06:47:40;;;;;;;4.59;4.19;;;;;;;18.14;51.05;100826.39;;;;-56
2020/11/28 06:50:40;;;;;;;4.79;4.24;;;;;;;18.17;50.93;100827.72;;;;-56
2020/11/28 06:53:40;;;;;;;4.65;4.25;;;;;;;18.22;50.91;100826.82;;;;-56
2020/11/28 06:56:40;;;;;;;4.65;4.21;;;;;;;18.24;50.95;100826.53;;;;-57
2020/11/28 06:59:40;;;;;;;4.61;4.21;;;;;;;18.28;50.98;100833.34;;;;-50
2020/11/28 07:02:40;;;;;;;4.67;4.23;;;;;;;18.31;50.87;100837.47;;;;-50
2020/11/28 07:05:40;;;;;;;4.54;4.14;;;;;;;18.34;50.98;100845.38;;;;-49
2020/11/28 07:08:40;;;;;;;4.87;4.37;;;;;;;18.37;51.02;100839.92;;;;-50
2020/11/28 07:11:40;;;;;;;4.57;4.17;;;;;;;18.40;50.99;100843.05;;;;-50
2020/11/28 07:14:40;;;;;;;4.37;3.97;;;;;;;18.41;50.96;100845.83;;;;-57
2020/11/28 07:17:40;;;;;;;4.40;4.00;;;;;;;18.44;50.97;100846.11;;;;-56
2020/11/28 07:20:40;;;;;;;4.44;4.04;;;;;;;18.45;50.92;100839.25;;;;-57
2020/11/28 07:23:40;;;;;;;4.67;4.17;;;;;;;18.46;50.97;100837.55;;;;-50
2020/11/28 07:26:40;;;;;;;4.56;4.16;;;;;;;18.47;50.90;100838.31;;;;-57
2020/11/28 07:29:40;;;;;;;10.10;7.36;;;;;;;18.21;46.86;100845.80;;;;-57
2020/11/28 07:32:40;;;;;;;13.43;10.24;;;;;;;17.87;46.05;100843.33;;;;-56
2020/11/28 07:35:40;;;;;;;13.45;9.41;;;;;;;17.97;46.55;100841.09;;;;-50
2020/11/28 07:38:40;;;;;;;11.39;8.58;;;;;;;18.07;47.59;100843.27;;;;-51
2020/11/28 07:41:40;;;;;;;10.45;8.44;;;;;;;18.13;48.10;100840.63;;;;-51
2020/11/28 07:44:40;;;;;;;9.93;7.73;;;;;;;18.17;48.51;100841.67;;;;-51
2020/11/28 07:47:42;;;;;;;8.42;7.11;;;;;;;18.20;48.79;100843.05;;;;-51
2020/11/28 07:50:40;;;;;;;7.19;6.43;;;;;;;18.22;49.08;100844.91;;;;-51
2020/11/28 07:53:40;;;;;;;7.58;6.67;;;;;;;18.24;49.21;100845.77;;;;-50
2020/11/28 07:56:40;;;;;;;7.46;6.50;;;;;;;18.25;49.29;100850.66;;;;-49
2020/11/28 07:59:40;;;;;;;7.49;6.69;;;;;;;18.26;49.39;100852.05;;;;-50
2020/11/28 08:02:40;;;;;;;7.21;6.45;;;;;;;18.26;49.46;100844.94;;;;-57
2020/11/28 08:05:40;;;;;;;7.06;6.31;;;;;;;18.27;49.51;100850.78;;;;-51
2020/11/28 08:08:40;;;;;;;6.98;6.28;;;;;;;18.28;49.51;100855.56;;;;-57
2020/11/28 08:11:42;;;;;;;6.49;5.89;;;;;;;18.27;49.58;100854.91;;;;-57
2020/11/28 08:14:40;;;;;;;6.88;6.18;;;;;;;18.28;49.59;100859.01;;;;-57
2020/11/28 08:17:40;;;;;;;7.26;6.41;;;;;;;18.28;49.68;100861.49;;;;-56
2020/11/28 08:20:40;;;;;;;6.78;6.11;;;;;;;18.28;49.68;100866.95;;;;-57
2020/11/28 08:23:40;;;;;;;6.62;5.93;;;;;;;18.27;49.61;100862.46;;;;-57
2020/11/28 08:26:40;;;;;;;6.73;6.03;;;;;;;18.28;49.53;100867.98;;;;-57
2020/11/28 08:29:40;;;;;;;7.15;6.33;;;;;;;18.27;49.61;100865.70;;;;-57
2020/11/28 08:32:40;;;;;;;6.94;6.24;;;;;;;18.27;49.60;100867.01;;;;-57
2020/11/28 08:35:40;;;;;;;6.75;6.05;;;;;;;18.28;49.66;100867.25;;;;-57
2020/11/28 08:38:40;;;;;;;6.71;6.05;;;;;;;18.28;49.51;100870.82;;;;-57
2020/11/28 08:41:40;;;;;;;6.59;5.94;;;;;;;18.28;49.59;100873.01;;;;-50
2020/11/28 08:44:40;;;;;;;6.60;6.00;;;;;;;18.28;49.61;100874.39;;;;-51
2020/11/28 08:47:40;;;;;;;6.65;5.95;;;;;;;18.26;49.46;100882.42;;;;-50
2020/11/28 08:50:40;;;;;;;6.89;6.19;;;;;;;18.26;49.53;100882.22;;;;-50
2020/11/28 08:53:40;;;;;;;6.65;5.93;;;;;;;18.26;49.59;100877.52;;;;-50
2020/11/28 08:56:40;;;;;;;6.66;5.98;;;;;;;18.25;49.50;100876.38;;;;-49
2020/11/28 08:59:40;;;;;;;7.01;6.31;;;;;;;18.25;49.46;100877.19;;;;-50
2020/11/28 09:02:40;;;;;;;6.97;6.25;;;;;;;18.24;49.37;100879.22;;;;-50
2020/11/28 09:05:40;;;;;;;6.63;5.99;;;;;;;18.23;49.33;100879.42;;;;-50
2020/11/28 09:08:40;;;;;;;6.65;5.87;;;;;;;18.23;49.35;100881.70;;;;-51
2020/11/28 09:11:40;;;;;;;6.54;5.94;;;;;;;18.23;49.32;100879.59;;;;-50
2020/11/28 09:14:40;;;;;;;6.29;5.69;;;;;;;18.23;49.34;100883.23;;;;-51
2020/11/28 09:17:40;;;;;;;7.07;6.23;;;;;;;18.22;49.36;100884.58;;;;-50
2020/11/28 09:20:40;;;;;;;6.71;6.01;;;;;;;18.23;49.79;100882.02;;;;-56
2020/11/28 09:23:40;;;;;;;7.03;5.97;;;;;;;18.24;49.87;100884.89;;;;-55
2020/11/28 09:26:40;;;;;;;6.69;5.78;;;;;;;18.27;50.52;100888.50;;;;-52
2020/11/28 09:29:40;;;;;;;6.71;6.05;;;;;;;18.32;50.64;100887.69;;;;-52
2020/11/28 09:32:40;;;;;;;6.55;5.43;;;;;;;18.36;50.92;100888.17;;;;-55
2020/11/28 09:35:40;;;;;;;6.61;5.91;;;;;;;18.40;50.84;100877.61;;;;-52
2020/11/28 09:38:40;;;;;;;11.54;5.62;;;;;;;18.47;50.87;100882.30;;;;-55
2020/11/28 09:41:40;;;;;;;6.10;5.50;;;;;;;18.52;51.05;100875.72;;;;-55
2020/11/28 09:44:40;;;;;;;5.55;5.03;;;;;;;18.58;51.19;100868.75;;;;-51
2020/11/28 09:47:40;;;;;;;5.93;5.33;;;;;;;18.64;51.27;100872.19;;;;-58
2020/11/28 09:50:40;;;;;;;6.33;5.21;;;;;;;18.71;51.56;100868.23;;;;-54
2020/11/28 09:53:40;;;;;;;5.77;5.20;;;;;;;18.75;50.93;100871.55;;;;-53
2020/11/28 09:56:40;;;;;;;6.35;5.55;;;;;;;18.79;49.95;100867.01;;;;-51
2020/11/28 09:59:40;;;;;;;6.13;5.53;;;;;;;18.82;50.04;100867.53;;;;-52
2020/11/28 10:02:40;;;;;;;5.71;5.21;;;;;;;18.85;50.17;100861.26;;;;-51
2020/11/28 10:05:40;;;;;;;5.61;5.01;;;;;;;18.88;50.19;100852.69;;;;-51
2020/11/28 10:08:40;;;;;;;5.92;5.24;;;;;;;18.91;50.15;100848.52;;;;-52
2020/11/28 10:11:40;;;;;;;7.62;5.11;;;;;;;18.94;50.19;100848.63;;;;-52
2020/11/28 10:14:40;;;;;;;5.35;4.85;;;;;;;18.97;50.06;100838.05;;;;-52
2020/11/28 10:17:40;;;;;;;5.59;4.68;;;;;;;19.01;50.45;100838.11;;;;-52
2020/11/28 10:20:40;;;;;;;6.77;5.39;;;;;;;19.05;50.61;100844.51;;;;-51
2020/11/28 10:23:40;;;;;;;5.65;5.07;;;;;;;19.08;50.58;100842.50;;;;-54
2020/11/28 10:26:40;;;;;;;5.55;5.01;;;;;;;19.13;50.46;100839.55;;;;-54
2020/11/28 10:29:40;;;;;;;6.13;5.05;;;;;;;19.16;50.52;100842.05;;;;-57
2020/11/28 10:32:40;;;;;;;10.88;4.81;;;;;;;19.20;50.73;100833.82;;;;-54
2020/11/28 10:35:40;;;;;;;5.53;4.86;;;;;;;19.24;50.65;100830.47;;;;-54
2020/11/28 10:38:40;;;;;;;5.94;5.09;;;;;;;19.27;50.56;100826.51;;;;-56
2020/11/28 10:41:40;;;;;;;7.05;5.25;;;;;;;19.30;50.55;100825.64;;;;-55
2020/11/28 10:44:40;;;;;;;5.87;5.21;;;;;;;19.36;50.60;100823.03;;;;-52
2020/11/28 10:47:40;;;;;;;5.61;4.90;;;;;;;19.39;50.52;100820.33;;;;-52
2020/11/28 10:50:40;;;;;;;6.41;4.92;;;;;;;19.42;50.64;100825.26;;;;-50
2020/11/28 10:53:40;;;;;;;8.53;4.75;;;;;;;19.46;50.88;100830.19;;;;-54
2020/11/28 10:56:40;;;;;;;5.51;4.83;;;;;;;19.48;50.85;100830.34;;;;-51
2020/11/28 10:59:40;;;;;;;5.77;5.18;;;;;;;19.53;50.85;100828.80;;;;-57
2020/11/28 11:02:40;;;;;;;7.49;4.93;;;;;;;19.56;50.57;100825.65;;;;-59
2020/11/28 11:05:40;;;;;;;5.67;4.93;;;;;;;19.59;50.40;100815.83;;;;-48
2020/11/28 11:08:40;;;;;;;7.21;5.28;;;;;;;19.58;50.31;100809.49;;;;-52
2020/11/28 11:11:40;;;;;;;6.23;5.24;;;;;;;19.61;50.43;100806.21;;;;-54
2020/11/28 11:14:40;;;;;;;5.55;4.89;;;;;;;19.64;50.66;100802.25;;;;-53
2020/11/28 11:17:40;;;;;;;5.47;4.93;;;;;;;19.68;50.84;100802.45;;;;-54
2020/11/28 11:20:40;;;;;;;5.91;5.01;;;;;;;19.73;51.04;100800.09;;;;-56
2020/11/28 11:23:40;;;;;;;5.59;5.00;;;;;;;19.75;50.97;100797.27;;;;-51
2020/11/28 11:26:40;;;;;;;5.51;4.99;;;;;;;19.78;51.17;100801.05;;;;-51
2020/11/28 11:29:40;;;;;;;10.35;5.55;;;;;;;19.81;50.92;100804.08;;;;-54
2020/11/28 11:32:40;;;;;;;5.98;4.85;;;;;;;19.85;51.17;100799.81;;;;-54
2020/11/28 11:35:40;;;;;;;6.07;4.98;;;;;;;19.87;51.10;100803.91;;;;-54
2020/11/28 11:38:40;;;;;;;5.85;5.23;;;;;;;19.89;51.04;100799.45;;;;-57
2020/11/28 11:41:40;;;;;;;5.90;5.05;;;;;;;19.94;51.18;100795.83;;;;-54
2020/11/28 11:44:40;;;;;;;5.20;4.70;;;;;;;19.97;51.02;100795.47;;;;-63
2020/11/28 11:47:40;;;;;;;5.47;4.75;;;;;;;19.98;51.10;100792.64;;;;-57
2020/11/28 11:50:40;;;;;;;5.41;4.91;;;;;;;20.01;50.97;100791.27;;;;-54
2020/11/28 11:53:40;;;;;;;6.83;4.99;;;;;;;20.03;51.18;100791.55;;;;-55
2020/11/28 11:56:40;;;;;;;6.89;5.17;;;;;;;20.05;51.29;100784.64;;;;-60
2020/11/28 11:59:40;;;;;;;6.84;5.17;;;;;;;20.10;51.10;100779.39;;;;-59
2020/11/28 12:02:40;;;;;;;5.12;4.62;;;;;;;20.12;50.71;100779.56;;;;-59
2020/11/28 12:05:40;;;;;;;5.93;5.08;;;;;;;20.13;50.43;100775.98;;;;-59
2020/11/28 12:08:40;;;;;;;5.81;4.91;;;;;;;20.12;50.33;100773.47;;;;-59
2020/11/28 12:11:40;;;;;;;5.64;4.73;;;;;;;20.15;50.25;100773.97;;;;-60
2020/11/28 12:14:40;;;;;;;5.93;4.73;;;;;;;20.14;50.14;100766.98;;;;-59
2020/11/28 12:17:40;;;;;;;5.06;4.40;;;;;;;20.15;50.12;100767.41;;;;-59
2020/11/28 12:20:40;;;;;;;5.26;4.72;;;;;;;20.16;50.04;100765.05;;;;-59
2020/11/28 12:23:40;;;;;;;5.17;4.67;;;;;;;20.16;49.96;100763.49;;;;-47
2020/11/28 12:26:40;;;;;;;5.70;4.52;;;;;;;20.18;49.83;100762.78;;;;-59
2020/11/28 12:29:40;;;;;;;5.13;4.63;;;;;;;20.18;49.86;100757.41;;;;-59
2020/11/28 12:32:40;;;;;;;7.17;4.87;;;;;;;20.18;49.76;100759.84;;;;-59
2020/11/28 12:35:40;;;;;;;5.69;4.82;;;;;;;20.20;49.72;100765.40;;;;-54
2020/11/28 12:38:40;;;;;;;5.46;4.69;;;;;;;20.21;49.69;100765.31;;;;-49
2020/11/28 12:41:40;;;;;;;5.07;4.57;;;;;;;20.21;49.68;100759.56;;;;-47
2020/11/28 12:44:40;;;;;;;4.98;4.50;;;;;;;20.22;49.65;100761.92;;;;-59
2020/11/28 12:47:40;;;;;;;5.12;4.62;;;;;;;20.23;49.54;100766.58;;;;-53
2020/11/28 12:50:40;;;;;;;5.27;4.75;;;;;;;20.22;49.67;100764.28;;;;-54
2020/11/28 12:53:40;;;;;;;4.87;4.43;;;;;;;20.24;49.51;100759.98;;;;-54
2020/11/28 12:56:40;;;;;;;5.12;4.62;;;;;;;20.25;49.42;100757.32;;;;-54
2020/11/28 12:59:40;;;;;;;5.05;4.55;;;;;;;20.25;49.44;100749.80;;;;-54
2020/11/28 13:02:40;;;;;;;4.97;4.51;;;;;;;20.25;49.50;100750.21;;;;-59
2020/11/28 13:05:40;;;;;;;4.64;4.24;;;;;;;20.26;49.40;100751.70;;;;-59
2020/11/28 13:08:40;;;;;;;4.65;4.23;;;;;;;20.25;49.33;100744.78;;;;-53
2020/11/28 13:11:40;;;;;;;4.90;4.37;;;;;;;20.25;49.34;100735.56;;;;-47
2020/11/28 13:14:40;;;;;;;4.82;4.34;;;;;;;20.25;49.33;100738.82;;;;-47
2020/11/28 13:17:40;;;;;;;4.93;4.43;;;;;;;20.24;49.35;100736.22;;;;-59
2020/11/28 13:23:40;;;;;;;4.74;4.34;;;;;;;20.23;49.33;100728.98;;;;-54
2020/11/28 13:26:40;;;;;;;4.64;4.15;;;;;;;20.24;49.17;100725.15;;;;-59
2020/11/28 13:29:40;;;;;;;4.49;4.09;;;;;;;20.25;49.12;100727.58;;;;-50
2020/11/28 13:32:40;;;;;;;5.07;4.57;;;;;;;20.26;49.23;100732.48;;;;-54
2020/11/28 13:35:40;;;;;;;4.58;4.17;;;;;;;20.28;49.31;100733.81;;;;-54
2020/11/28 13:38:40;;;;;;;4.94;4.44;;;;;;;20.31;49.55;100745.70;;;;-56
2020/11/28 13:41:40;;;;;;;5.29;4.27;;;;;;;20.34;49.59;100740.61;;;;-54
2020/11/28 13:44:40;;;;;;;4.63;4.22;;;;;;;20.36;49.71;100744.34;;;;-51
2020/11/28 13:47:40;;;;;;;4.71;4.31;;;;;;;20.37;49.75;100746.31;;;;-56
2020/11/28 13:50:40;;;;;;;4.74;4.34;;;;;;;20.40;49.92;100742.75;;;;-53
2020/11/28 13:53:40;;;;;;;5.35;4.43;;;;;;;20.42;50.33;100738.23;;;;-57
2020/11/28 13:57:03;;;;;;;4.74;4.11;;;;;;;20.44;50.10;100738.63;;;;-54
2020/11/28 13:59:40;;;;;;;4.61;4.15;;;;;;;20.46;50.10;100736.92;;;;-52
2020/11/28 14:02:40;;;;;;;4.59;4.16;;;;;;;20.49;49.99;100736.39;;;;-52
2020/11/28 14:05:41;;;;;;;4.43;4.03;;;;;;;20.51;49.91;100732.09;;;;-52
2020/11/28 14:08:40;;;;;;;4.45;4.05;;;;;;;20.53;49.84;100731.54;;;;-50
2020/11/28 14:11:40;;;;;;;4.59;4.19;;;;;;;20.56;50.03;100727.39;;;;-51
2020/11/28 14:14:40;;;;;;;4.65;4.05;;;;;;;20.58;50.14;100722.52;;;;-58
2020/11/28 14:17:40;;;;;;;4.35;3.95;;;;;;;20.57;50.07;100720.48;;;;-56
2020/11/28 14:20:40;;;;;;;4.60;4.17;;;;;;;20.61;50.11;100725.92;;;;-51
2020/11/28 14:23:40;;;;;;;4.50;4.10;;;;;;;20.62;50.08;100726.41;;;;-58
2020/11/28 14:26:40;;;;;;;4.47;4.03;;;;;;;20.63;50.15;100733.17;;;;-51
2020/11/28 14:29:40;;;;;;;4.29;3.89;;;;;;;20.65;50.05;100725.42;;;;-50
2020/11/28 14:32:40;;;;;;;4.55;4.15;;;;;;;20.65;50.06;100724.16;;;;-57
2020/11/28 14:35:40;;;;;;;4.69;4.03;;;;;;;20.67;49.93;100719.91;;;;-57
2020/11/28 14:38:40;;;;;;;4.59;4.19;;;;;;;20.67;49.86;100718.27;;;;-54
2020/11/28 14:41:40;;;;;;;4.41;4.01;;;;;;;20.69;49.84;100719.91;;;;-54
2020/11/28 14:44:40;;;;;;;4.97;4.23;;;;;;;20.69;49.65;100723.17;;;;-59
2020/11/28 14:47:40;;;;;;;9.37;4.25;;;;;;;20.68;49.48;100726.35;;;;-55
2020/11/28 14:51:04;;;;;;;4.63;4.19;;;;;;;20.67;49.57;100727.09;;;;-51
2020/11/28 14:53:40;;;;;;;4.81;3.98;;;;;;;20.72;49.60;100731.11;;;;-52
2020/11/28 14:56:40;;;;;;;4.89;4.41;;;;;;;20.72;49.56;100735.58;;;;-57
2020/11/28 14:59:40;;;;;;;5.06;4.27;;;;;;;20.74;49.65;100733.80;;;;-55
2020/11/28 15:02:40;;;;;;;4.53;4.13;;;;;;;20.76;49.61;100734.88;;;;-53
2020/11/28 15:08:40;;;;;;;4.57;4.17;;;;;;;20.78;49.64;100729.67;;;;-57
2020/11/28 15:11:40;;;;;;;5.01;4.54;;;;;;;20.78;49.69;100729.91;;;;-50
2020/11/28 15:14:40;;;;;;;5.13;4.17;;;;;;;20.81;49.69;100733.99;;;;-53
2020/11/28 15:17:40;;;;;;;4.72;4.32;;;;;;;20.82;49.58;100734.50;;;;-51
2020/11/28 15:20:40;;;;;;;4.48;4.07;;;;;;;20.83;49.52;100734.33;;;;-51
2020/11/28 15:23:40;;;;;;;4.43;4.03;;;;;;;20.86;49.56;100737.78;;;;-54
2020/11/28 15:26:40;;;;;;;6.29;4.18;;;;;;;20.85;49.64;100737.19;;;;-50
2020/11/28 15:29:40;;;;;;;4.55;4.15;;;;;;;20.86;49.71;100739.41;;;;-51
2020/11/28 15:32:40;;;;;;;4.41;4.02;;;;;;;20.84;49.70;100739.48;;;;-52
2020/11/28 15:35:40;;;;;;;4.31;3.91;;;;;;;20.85;49.73;100736.13;;;;-49
2020/11/28 15:38:40;;;;;;;4.59;4.19;;;;;;;20.84;49.70;100733.70;;;;-53
2020/11/28 15:41:40;;;;;;;4.41;4.01;;;;;;;20.86;49.68;100733.06;;;;-56
2020/11/28 15:44:40;;;;;;;4.55;4.11;;;;;;;20.85;49.76;100735.80;;;;-53
2020/11/28 15:47:40;;;;;;;4.51;4.11;;;;;;;20.85;49.68;100735.56;;;;-53
2020/11/28 15:50:40;;;;;;;4.44;4.04;;;;;;;20.86;49.64;100730.94;;;;-54
2020/11/28 15:53:40;;;;;;;4.58;4.16;;;;;;;20.88;49.71;100735.67;;;;-51
2020/11/28 15:56:40;;;;;;;4.78;4.38;;;;;;;20.87;49.78;100726.44;;;;-51
2020/11/28 15:59:40;;;;;;;4.69;4.29;;;;;;;20.87;49.71;100727.19;;;;-51
2020/11/28 16:02:40;;;;;;;4.77;4.35;;;;;;;20.88;49.79;100725.00;;;;-54
2020/11/28 16:05:40;;;;;;;4.77;4.37;;;;;;;20.91;49.79;100730.70;;;;-53
2020/11/28 16:08:40;;;;;;;4.34;3.93;;;;;;;20.91;49.77;100734.05;;;;-52
2020/11/28 16:11:40;;;;;;;4.68;4.25;;;;;;;20.93;49.87;100738.45;;;;-52
2020/11/28 16:14:40;;;;;;;4.65;4.25;;;;;;;20.93;49.81;100736.91;;;;-52
2020/11/28 16:17:40;;;;;;;4.65;4.25;;;;;;;20.97;49.93;100738.89;;;;-56
2020/11/28 16:20:40;;;;;;;4.49;4.09;;;;;;;20.98;50.14;100734.16;;;;-55
2020/11/28 16:23:40;;;;;;;4.67;4.27;;;;;;;20.97;50.19;100733.02;;;;-54
2020/11/28 16:26:40;;;;;;;4.63;4.23;;;;;;;20.99;50.94;100740.20;;;;-56
2020/11/28 16:29:40;;;;;;;4.92;4.47;;;;;;;20.98;49.88;100738.50;;;;-57
2020/11/28 16:32:40;;;;;;;4.70;4.29;;;;;;;20.96;49.64;100742.06;;;;-62
2020/11/28 16:35:40;;;;;;;5.25;4.35;;;;;;;20.95;49.51;100738.30;;;;-62
2020/11/28 16:38:40;;;;;;;4.50;4.10;;;;;;;20.94;49.36;100745.65;;;;-63
2020/11/28 16:41:40;;;;;;;4.75;4.11;;;;;;;20.93;49.38;100745.79;;;;-56
2020/11/28 16:44:40;;;;;;;4.68;4.28;;;;;;;20.90;49.38;100750.02;;;;-56
2020/11/28 16:47:40;;;;;;;4.55;4.15;;;;;;;20.89;49.29;100749.03;;;;-55